Westfield, Wisconsin
Current Conditions -  °F | °C
As of 6:07 AM on Friday 28 Nov 2014 (Local Time) from KY50 Reporting Station
Light Snow Light Snow  
Wind Chill:   Ceiling: 4600
Heat Index: 10°   Visibility: 5mi
Dew Point:   Wind: 5mph
Humidity: 85%   Direction: 120°ESE
Pressure: 30.22"   Gusts: NA
Location:  43.88°N, 89.49°W
Report Text: KY50 281207Z AUTO 12004KT 5SM -SN BR FEW001 BKN046 OVC080 M12/M14 A3022 RMK AO2 TSNO P0000
Loading
Personal Weather Stations






























Interactive Weather Map New forecast layout! Learn more

10-Day Weather Forecast

Advertisements
Track Severe Weather on mobile